sensor_id;sensor_type;location;lat;lon;timestamp;pressure;altitude;pressure_sealevel;temperature;humidity
6853;BME280;3465;42.144;24.722;2024-01-11T00:01:02;100988.56;;;-2.50;83.54
6853;BME280;3465;42.144;24.722;2024-01-11T00:03:28;100986.91;;;-2.45;83.31
6853;BME280;3465;42.144;24.722;2024-01-11T00:05:53;100986.03;;;-2.47;83.19
6853;BME280;3465;42.144;24.722;2024-01-11T00:08:18;100976.78;;;-2.39;82.92
6853;BME280;3465;42.144;24.722;2024-01-11T00:10:44;100975.84;;;-2.51;83.43
6853;BME280;3465;42.144;24.722;2024-01-11T00:13:09;100978.47;;;-2.41;83.38
6853;BME280;3465;42.144;24.722;2024-01-11T00:15:35;100979.44;;;-2.28;83.17
6853;BME280;3465;42.144;24.722;2024-01-11T00:18:00;100973.47;;;-2.33;82.98
6853;BME280;3465;42.144;24.722;2024-01-11T00:20:26;100966.78;;;-2.22;82.97
6853;BME280;3465;42.144;24.722;2024-01-11T00:22:51;100957.56;;;-2.11;82.13
6853;BME280;3465;42.144;24.722;2024-01-11T00:25:17;100966.03;;;-2.12;82.74
6853;BME280;3465;42.144;24.722;2024-01-11T00:27:43;100964.41;;;-2.03;82.01
6853;BME280;3465;42.144;24.722;2024-01-11T00:30:08;100959.41;;;-1.95;81.53
6853;BME280;3465;42.144;24.722;2024-01-11T00:32:34;100955.13;;;-1.99;81.38
6853;BME280;3465;42.144;24.722;2024-01-11T00:34:59;100944.97;;;-1.99;81.60
6853;BME280;3465;42.144;24.722;2024-01-11T00:37:24;100945.81;;;-1.96;81.12
6853;BME280;3465;42.144;24.722;2024-01-11T00:39:50;100939.88;;;-1.96;81.48
6853;BME280;3465;42.144;24.722;2024-01-11T00:42:16;100937.38;;;-1.89;80.96
6853;BME280;3465;42.144;24.722;2024-01-11T00:44:41;100942.56;;;-1.78;80.15
6853;BME280;3465;42.144;24.722;2024-01-11T00:47:07;100928.06;;;-1.87;80.35
6853;BME280;3465;42.144;24.722;2024-01-11T00:49:32;100928.03;;;-1.91;80.97
6853;BME280;3465;42.144;24.722;2024-01-11T00:51:57;100921.34;;;-1.77;80.10
6853;BME280;3465;42.144;24.722;2024-01-11T00:54:23;100918.81;;;-1.74;79.58
6853;BME280;3465;42.144;24.722;2024-01-11T00:56:50;100905.91;;;-1.98;80.69
6853;BME280;3465;42.144;24.722;2024-01-11T00:59:15;100908.50;;;-1.92;80.45
6853;BME280;3465;42.144;24.722;2024-01-11T01:01:47;100911.91;;;-1.89;81.15
6853;BME280;3465;42.144;24.722;2024-01-11T01:04:12;100910.28;;;-1.81;80.32
6853;BME280;3465;42.144;24.722;2024-01-11T01:06:38;100907.78;;;-1.75;79.62
6853;BME280;3465;42.144;24.722;2024-01-11T01:09:03;100905.22;;;-1.78;79.08
6853;BME280;3465;42.144;24.722;2024-01-11T01:11:29;100907.69;;;-1.91;80.19
6853;BME280;3465;42.144;24.722;2024-01-11T01:13:55;100898.34;;;-1.89;79.95
6853;BME280;3465;42.144;24.722;2024-01-11T01:16:20;100900.88;;;-1.91;79.85
6853;BME280;3465;42.144;24.722;2024-01-11T01:18:46;100894.13;;;-1.86;79.83
6853;BME280;3465;42.144;24.722;2024-01-11T01:21:12;100875.47;;;-1.82;78.85
6853;BME280;3465;42.144;24.722;2024-01-11T01:23:37;100889.00;;;-1.93;79.41
6853;BME280;3465;42.144;24.722;2024-01-11T01:26:03;100879.63;;;-1.96;79.58
6853;BME280;3465;42.144;24.722;2024-01-11T01:28:29;100888.09;;;-2.00;79.54
6853;BME280;3465;42.144;24.722;2024-01-11T01:30:54;100888.91;;;-2.01;79.88
6853;BME280;3465;42.144;24.722;2024-01-11T01:33:20;100889.69;;;-2.12;80.60
6853;BME280;3465;42.144;24.722;2024-01-11T01:35:45;100880.31;;;-2.18;80.52
6853;BME280;3465;42.144;24.722;2024-01-11T01:38:11;100882.94;;;-2.06;80.02
6853;BME280;3465;42.144;24.722;2024-01-11T01:40:37;100877.00;;;-2.09;80.00
6853;BME280;3465;42.144;24.722;2024-01-11T01:43:06;100878.53;;;-2.29;80.65
6853;BME280;3465;42.144;24.722;2024-01-11T01:45:34;100871.81;;;-2.20;80.30
6853;BME280;3465;42.144;24.722;2024-01-11T01:47:59;100865.00;;;-2.22;80.51
6853;BME280;3465;42.144;24.722;2024-01-11T01:50:25;100858.19;;;-2.28;80.24
6853;BME280;3465;42.144;24.722;2024-01-11T01:52:51;100866.69;;;-2.27;80.97
6853;BME280;3465;42.144;24.722;2024-01-11T01:55:17;100863.31;;;-2.23;80.05
6853;BME280;3465;42.144;24.722;2024-01-11T01:57:45;100859.16;;;-2.11;79.25
6853;BME280;3465;42.144;24.722;2024-01-11T02:00:12;100862.53;;;-2.12;79.07
6853;BME280;3465;42.144;24.722;2024-01-11T02:02:46;100851.38;;;-2.32;79.46
6853;BME280;3465;42.144;24.722;2024-01-11T02:05:16;100848.56;;;-2.59;80.53
6853;BME280;3465;42.144;24.722;2024-01-11T02:07:43;100858.94;;;-2.39;79.97
6853;BME280;3465;42.144;24.722;2024-01-11T02:10:09;100850.41;;;-2.47;79.79
6853;BME280;3465;42.144;24.722;2024-01-11T02:12:35;100858.94;;;-2.39;79.63
6853;BME280;3465;42.144;24.722;2024-01-11T02:15:03;100842.78;;;-2.44;79.71
6853;BME280;3465;42.144;24.722;2024-01-11T02:17:30;100847.81;;;-2.53;80.36
6853;BME280;3465;42.144;24.722;2024-01-11T02:19:55;100844.41;;;-2.52;79.73
6853;BME280;3465;42.144;24.722;2024-01-11T02:22:29;100833.47;;;-2.45;78.93
6853;BME280;3465;42.144;24.722;2024-01-11T02:24:55;100819.78;;;-2.58;79.48
6853;BME280;3465;42.144;24.722;2024-01-11T02:27:22;100832.34;;;-2.75;80.18
6853;BME280;3465;42.144;24.722;2024-01-11T02:29:48;100818.81;;;-2.69;79.82
6853;BME280;3465;42.144;24.722;2024-01-11T02:32:14;100829.97;;;-2.55;78.84
6853;BME280;3465;42.144;24.722;2024-01-11T02:34:39;100824.88;;;-2.57;78.48
6853;BME280;3465;42.144;24.722;2024-01-11T02:37:05;100828.22;;;-2.59;79.07
6853;BME280;3465;42.144;24.722;2024-01-11T02:39:31;100831.69;;;-2.51;78.86
6853;BME280;3465;42.144;24.722;2024-01-11T02:41:57;100826.47;;;-2.66;78.46
6853;BME280;3465;42.144;24.722;2024-01-11T02:44:23;100827.28;;;-2.72;79.28
6853;BME280;3465;42.144;24.722;2024-01-11T02:46:49;100828.03;;;-2.82;78.68
6853;BME280;3465;42.144;24.722;2024-01-11T02:49:14;100825.34;;;-2.97;79.29
6853;BME280;3465;42.144;24.722;2024-01-11T02:51:40;100829.72;;;-2.84;79.02
6853;BME280;3465;42.144;24.722;2024-01-11T02:54:06;100831.41;;;-2.84;78.85
6853;BME280;3465;42.144;24.722;2024-01-11T02:56:31;100836.41;;;-2.92;78.97
6853;BME280;3465;42.144;24.722;2024-01-11T02:58:57;100831.41;;;-2.86;78.93
6853;BME280;3465;42.144;24.722;2024-01-11T03:01:22;100833.94;;;-2.83;79.16
6853;BME280;3465;42.144;24.722;2024-01-11T03:03:49;100827.19;;;-2.84;78.25
6853;BME280;3465;42.144;24.722;2024-01-11T03:06:14;100828.97;;;-2.74;78.66
6853;BME280;3465;42.144;24.722;2024-01-11T03:08:40;100815.28;;;-2.85;78.78
6853;BME280;3465;42.144;24.722;2024-01-11T03:11:05;100820.38;;;-2.85;78.65
6853;BME280;3465;42.144;24.722;2024-01-11T03:13:31;100821.28;;;-2.80;78.33
6853;BME280;3465;42.144;24.722;2024-01-11T03:15:56;100803.41;;;-2.87;78.23
6853;BME280;3465;42.144;24.722;2024-01-11T03:18:22;100815.28;;;-2.85;78.81
6853;BME280;3465;42.144;24.722;2024-01-11T03:20:48;100813.66;;;-2.80;78.67
6853;BME280;3465;42.144;24.722;2024-01-11T03:23:13;100813.78;;;-2.63;77.72
6853;BME280;3465;42.144;24.722;2024-01-11T03:25:39;100816.25;;;-2.71;78.42
6853;BME280;3465;42.144;24.722;2024-01-11T03:28:04;100812.00;;;-2.75;78.26
6853;BME280;3465;42.144;24.722;2024-01-11T03:30:30;100810.19;;;-2.88;78.24
6853;BME280;3465;42.144;24.722;2024-01-11T03:33:14;100806.78;;;-2.87;78.08
6853;BME280;3465;42.144;24.722;2024-01-11T03:35:39;100807.66;;;-2.86;77.97
6853;BME280;3465;42.144;24.722;2024-01-11T03:38:06;100798.28;;;-2.92;78.47
6853;BME280;3465;42.144;24.722;2024-01-11T03:40:31;100808.47;;;-2.87;77.93
6853;BME280;3465;42.144;24.722;2024-01-11T03:42:57;100810.09;;;-2.97;78.77
6853;BME280;3465;42.144;24.722;2024-01-11T03:45:22;100800.13;;;-2.76;78.01
6853;BME280;3465;42.144;24.722;2024-01-11T03:47:47;100800.06;;;-2.82;77.59
6853;BME280;3465;42.144;24.722;2024-01-11T03:50:13;100800.97;;;-2.75;77.66
6853;BME280;3465;42.144;24.722;2024-01-11T03:52:39;100802.69;;;-2.76;77.19
6853;BME280;3465;42.144;24.722;2024-01-11T03:55:05;100802.69;;;-2.74;76.86
6853;BME280;3465;42.144;24.722;2024-01-11T03:57:31;100796.69;;;-2.82;77.85
6853;BME280;3465;42.144;24.722;2024-01-11T03:59:56;100793.28;;;-2.83;78.25
6853;BME280;3465;42.144;24.722;2024-01-11T04:02:22;100788.34;;;-2.66;76.59
6853;BME280;3465;42.144;24.722;2024-01-11T04:04:47;100787.53;;;-2.64;76.43
6853;BME280;3465;42.144;24.722;2024-01-11T04:07:13;100758.56;;;-2.79;76.22
6853;BME280;3465;42.144;24.722;2024-01-11T04:09:39;100777.16;;;-2.86;77.14
6853;BME280;3465;42.144;24.722;2024-01-11T04:12:05;100781.31;;;-2.96;77.63
6853;BME280;3465;42.144;24.722;2024-01-11T04:14:31;100775.34;;;-2.98;77.97
6853;BME280;3465;42.144;24.722;2024-01-11T04:16:56;100775.25;;;-3.07;78.21
6853;BME280;3465;42.144;24.722;2024-01-11T04:19:22;100773.63;;;-2.99;77.74
6853;BME280;3465;42.144;24.722;2024-01-11T04:21:47;100764.28;;;-3.04;78.54
6853;BME280;3465;42.144;24.722;2024-01-11T04:24:13;100778.56;;;-3.15;78.81
6853;BME280;3465;42.144;24.722;2024-01-11T04:26:38;100775.19;;;-3.16;78.43
6853;BME280;3465;42.144;24.722;2024-01-11T04:29:04;100776.88;;;-3.15;79.25
6853;BME280;3465;42.144;24.722;2024-01-11T04:31:29;100776.22;;;-2.96;77.32
6853;BME280;3465;42.144;24.722;2024-01-11T04:33:55;100773.59;;;-3.03;78.05
6853;BME280;3465;42.144;24.722;2024-01-11T04:36:20;100769.97;;;-3.26;78.73
6853;BME280;3465;42.144;24.722;2024-01-11T04:38:45;100782.75;;;-3.22;78.56
6853;BME280;3465;42.144;24.722;2024-01-11T04:41:12;100780.28;;;-3.13;78.08
6853;BME280;3465;42.144;24.722;2024-01-11T04:43:39;100774.94;;;-3.38;78.93
6853;BME280;3465;42.144;24.722;2024-01-11T04:46:18;100776.69;;;-3.31;79.13
6853;BME280;3465;42.144;24.722;2024-01-11T04:48:45;100778.53;;;-3.17;77.75
6853;BME280;3465;42.144;24.722;2024-01-11T04:51:12;100772.41;;;-3.35;78.90
6853;BME280;3465;42.144;24.722;2024-01-11T04:53:38;100769.81;;;-3.42;78.53
6853;BME280;3465;42.144;24.722;2024-01-11T04:56:08;100769.94;;;-3.29;78.08
6853;BME280;3465;42.144;24.722;2024-01-11T04:58:34;100770.53;;;-3.53;79.70
6853;BME280;3465;42.144;24.722;2024-01-11T05:01:00;100774.59;;;-3.67;79.96
6853;BME280;3465;42.144;24.722;2024-01-11T05:03:26;100766.97;;;-3.70;80.10
6853;BME280;3465;42.144;24.722;2024-01-11T05:05:51;100770.28;;;-3.74;80.21
6853;BME280;3465;42.144;24.722;2024-01-11T05:08:17;100759.44;;;-3.63;78.92
6853;BME280;3465;42.144;24.722;2024-01-11T05:10:42;100763.56;;;-3.68;80.24
6853;BME280;3465;42.144;24.722;2024-01-11T05:13:09;100759.56;;;-3.48;78.77
6853;BME280;3465;42.144;24.722;2024-01-11T05:15:34;100755.22;;;-3.61;79.81
6853;BME280;3465;42.144;24.722;2024-01-11T05:18:00;100758.63;;;-3.57;79.38
6853;BME280;3465;42.144;24.722;2024-01-11T05:20:25;100757.81;;;-3.55;78.93
6853;BME280;3465;42.144;24.722;2024-01-11T05:22:51;100757.88;;;-3.50;79.13
6853;BME280;3465;42.144;24.722;2024-01-11T05:25:16;100751.00;;;-3.59;79.55
6853;BME280;3465;42.144;24.722;2024-01-11T05:27:42;100752.75;;;-3.56;79.64
6853;BME280;3465;42.144;24.722;2024-01-11T05:30:08;100744.31;;;-3.51;79.18
6853;BME280;3465;42.144;24.722;2024-01-11T05:32:33;100757.81;;;-3.56;79.33
6853;BME280;3465;42.144;24.722;2024-01-11T05:34:59;100744.25;;;-3.58;79.16
6853;BME280;3465;42.144;24.722;2024-01-11T05:37:24;100746.78;;;-3.58;78.79
6853;BME280;3465;42.144;24.722;2024-01-11T05:39:50;100741.78;;;-3.51;78.52
6853;BME280;3465;42.144;24.722;2024-01-11T05:42:16;100742.81;;;-3.33;77.73
6853;BME280;3465;42.144;24.722;2024-01-11T05:44:41;100741.97;;;-3.34;77.53
6853;BME280;3465;42.144;24.722;2024-01-11T05:47:07;100738.63;;;-3.27;76.60
6853;BME280;3465;42.144;24.722;2024-01-11T05:49:32;100738.56;;;-3.34;76.96
6853;BME280;3465;42.144;24.722;2024-01-11T05:51:58;100739.38;;;-3.37;77.93
6853;BME280;3465;42.144;24.722;2024-01-11T05:54:23;100729.97;;;-3.47;77.70
6853;BME280;3465;42.144;24.722;2024-01-11T05:56:49;100730.16;;;-3.29;77.53
6853;BME280;3465;42.144;24.722;2024-01-11T05:59:17;100732.63;;;-3.33;77.35
6853;BME280;3465;42.144;24.722;2024-01-11T06:01:43;100733.41;;;-3.42;78.93
6853;BME280;3465;42.144;24.722;2024-01-11T06:04:09;100735.19;;;-3.33;78.45
6853;BME280;3465;42.144;24.722;2024-01-11T06:06:34;100734.44;;;-3.23;77.91
6853;BME280;3465;42.144;24.722;2024-01-11T06:09:00;100742.16;;;-3.16;77.43
6853;BME280;3465;42.144;24.722;2024-01-11T06:11:25;100737.03;;;-3.19;77.66
6853;BME280;3465;42.144;24.722;2024-01-11T06:13:51;100726.72;;;-3.34;78.14
6853;BME280;3465;42.144;24.722;2024-01-11T06:16:16;100731.91;;;-3.23;78.00
6853;BME280;3465;42.144;24.722;2024-01-11T06:18:42;100734.34;;;-3.32;78.62
6853;BME280;3465;42.144;24.722;2024-01-11T06:21:07;100733.44;;;-3.39;78.86
6853;BME280;3465;42.144;24.722;2024-01-11T06:23:33;100730.91;;;-3.37;78.36
6853;BME280;3465;42.144;24.722;2024-01-11T06:25:58;100727.56;;;-3.35;78.53
6853;BME280;3465;42.144;24.722;2024-01-11T06:28:24;100721.66;;;-3.29;77.76
6853;BME280;3465;42.144;24.722;2024-01-11T06:30:49;100722.41;;;-3.39;78.45
6853;BME280;3465;42.144;24.722;2024-01-11T06:33:15;100727.63;;;-3.27;78.72
6853;BME280;3465;42.144;24.722;2024-01-11T06:35:41;100723.56;;;-3.10;78.31
6853;BME280;3465;42.144;24.722;2024-01-11T06:38:06;100718.44;;;-3.13;78.19
6853;BME280;3465;42.144;24.722;2024-01-11T06:40:32;100722.81;;;-2.99;77.56
6853;BME280;3465;42.144;24.722;2024-01-11T06:42:58;100720.31;;;-2.91;77.54
6853;BME280;3465;42.144;24.722;2024-01-11T06:45:23;100720.38;;;-2.88;77.61
6853;BME280;3465;42.144;24.722;2024-01-11T06:47:49;100718.72;;;-2.80;77.32
6853;BME280;3465;42.144;24.722;2024-01-11T06:50:14;100710.34;;;-2.72;76.84
6853;BME280;3465;42.144;24.722;2024-01-11T06:52:40;100713.75;;;-2.67;76.38
6853;BME280;3465;42.144;24.722;2024-01-11T06:55:06;100719.72;;;-2.59;75.45
6853;BME280;3465;42.144;24.722;2024-01-11T06:57:31;100724.06;;;-2.45;75.05
6853;BME280;3465;42.144;24.722;2024-01-11T06:59:57;100724.97;;;-2.36;75.36
6853;BME280;3465;42.144;24.722;2024-01-11T07:02:22;100716.53;;;-2.33;75.29
6853;BME280;3465;42.144;24.722;2024-01-11T07:04:48;100718.47;;;-1.81;74.29
6853;BME280;3465;42.144;24.722;2024-01-11T07:07:13;100701.72;;;1.93;64.55
6853;BME280;3465;42.144;24.722;2024-01-11T07:09:39;100695.31;;;5.39;49.96
6853;BME280;3465;42.144;24.722;2024-01-11T07:12:05;100685.56;;;8.22;41.34
6853;BME280;3465;42.144;24.722;2024-01-11T07:14:31;100694.09;;;9.13;38.52
6853;BME280;3465;42.144;24.722;2024-01-11T07:16:57;100689.84;;;11.04;35.21
6853;BME280;3465;42.144;24.722;2024-01-11T07:19:23;100681.63;;;11.48;32.09
6853;BME280;3465;42.144;24.722;2024-01-11T07:21:48;100683.16;;;13.86;29.22
6853;BME280;3465;42.144;24.722;2024-01-11T07:24:14;100675.72;;;14.77;27.72
6853;BME280;3465;42.144;24.722;2024-01-11T07:26:39;100673.28;;;15.91;24.61
6853;BME280;3465;42.144;24.722;2024-01-11T07:29:05;100679.25;;;15.93;23.80
6853;BME280;3465;42.144;24.722;2024-01-11T07:31:30;100672.84;;;16.46;23.44
6853;BME280;3465;42.144;24.722;2024-01-11T07:33:56;100675.16;;;15.89;22.72
6853;BME280;3465;42.144;24.722;2024-01-11T07:36:21;100671.47;;;15.15;24.79
6853;BME280;3465;42.144;24.722;2024-01-11T07:38:47;100667.47;;;17.20;21.37
6853;BME280;3465;42.144;24.722;2024-01-11T07:41:12;100650.56;;;18.14;20.76
6853;BME280;3465;42.144;24.722;2024-01-11T07:43:39;100649.25;;;16.59;22.48
6853;BME280;3465;42.144;24.722;2024-01-11T07:46:05;100652.19;;;16.54;22.71
6853;BME280;3465;42.144;24.722;2024-01-11T07:48:32;100627.84;;;17.91;20.61
6853;BME280;3465;42.144;24.722;2024-01-11T07:50:59;100645.09;;;17.38;21.53
6853;BME280;3465;42.144;24.722;2024-01-11T07:53:25;100639.78;;;17.73;21.05
6853;BME280;3465;42.144;24.722;2024-01-11T07:55:51;100643.06;;;18.21;20.53
6853;BME280;3465;42.144;24.722;2024-01-11T07:58:16;100638.41;;;18.78;19.37
6853;BME280;3465;42.144;24.722;2024-01-11T08:00:42;100637.06;;;18.08;20.34
6853;BME280;3465;42.144;24.722;2024-01-11T08:03:07;100636.66;;;18.68;20.67
6853;BME280;3465;42.144;24.722;2024-01-11T08:05:34;100636.91;;;18.42;20.58
6853;BME280;3465;42.144;24.722;2024-01-11T08:07:59;100630.59;;;19.19;18.73
6853;BME280;3465;42.144;24.722;2024-01-11T08:10:27;100637.53;;;18.02;19.87
6853;BME280;3465;42.144;24.722;2024-01-11T08:12:52;100632.97;;;17.59;21.56
6853;BME280;3465;42.144;24.722;2024-01-11T08:15:18;100628.81;;;18.12;20.62
6853;BME280;3465;42.144;24.722;2024-01-11T08:17:46;100628.69;;;17.58;21.58
6853;BME280;3465;42.144;24.722;2024-01-11T08:20:11;100625.31;;;18.67;19.96
6853;BME280;3465;42.144;24.722;2024-01-11T08:22:43;100624.72;;;17.53;21.44
6853;BME280;3465;42.144;24.722;2024-01-11T08:25:10;100613.97;;;17.10;22.83
6853;BME280;3465;42.144;24.722;2024-01-11T08:27:35;100614.72;;;18.78;21.09
6853;BME280;3465;42.144;24.722;2024-01-11T08:30:01;100598.44;;;18.84;19.73
6853;BME280;3465;42.144;24.722;2024-01-11T08:32:27;100609.97;;;19.24;19.45
6853;BME280;3465;42.144;24.722;2024-01-11T08:34:54;100610.81;;;17.40;22.07
6853;BME280;3465;42.144;24.722;2024-01-11T08:37:19;100619.22;;;13.35;28.11
6853;BME280;3465;42.144;24.722;2024-01-11T08:39:45;100622.50;;;10.08;33.33
6853;BME280;3465;42.144;24.722;2024-01-11T08:42:11;100619.44;;;8.15;37.50
6853;BME280;3465;42.144;24.722;2024-01-11T08:44:41;100621.88;;;7.24;39.54
6853;BME280;3465;42.144;24.722;2024-01-11T08:47:06;100624.88;;;4.72;48.34
6853;BME280;3465;42.144;24.722;2024-01-11T08:49:32;100618.25;;;4.62;47.73
6853;BME280;3465;42.144;24.722;2024-01-11T08:51:58;100620.03;;;3.82;51.48
6853;BME280;3465;42.144;24.722;2024-01-11T08:54:23;100619.00;;;2.99;54.14
6853;BME280;3465;42.144;24.722;2024-01-11T08:56:48;100611.06;;;2.63;55.59
6853;BME280;3465;42.144;24.722;2024-01-11T08:59:14;100609.97;;;2.21;55.18
6853;BME280;3465;42.144;24.722;2024-01-11T09:01:39;100597.16;;;1.54;57.97
6853;BME280;3465;42.144;24.722;2024-01-11T09:04:05;100589.78;;;1.28;61.14
6853;BME280;3465;42.144;24.722;2024-01-11T09:06:31;100586.78;;;1.66;61.17
6853;BME280;3465;42.144;24.722;2024-01-11T09:08:57;100584.16;;;1.72;59.60
6853;BME280;3465;42.144;24.722;2024-01-11T09:11:22;100581.78;;;1.55;59.91
6853;BME280;3465;42.144;24.722;2024-01-11T09:13:48;100581.56;;;1.73;60.30
6853;BME280;3465;42.144;24.722;2024-01-11T09:16:15;100576.03;;;1.38;61.03
6853;BME280;3465;42.144;24.722;2024-01-11T09:18:41;100570.19;;;1.26;60.53
6853;BME280;3465;42.144;24.722;2024-01-11T09:21:06;100560.06;;;1.17;61.16
6853;BME280;3465;42.144;24.722;2024-01-11T09:23:33;100565.88;;;1.29;59.70
6853;BME280;3465;42.144;24.722;2024-01-11T09:25:59;100570.69;;;0.74;62.00
6853;BME280;3465;42.144;24.722;2024-01-11T09:28:25;100562.09;;;0.81;63.68
6853;BME280;3465;42.144;24.722;2024-01-11T09:30:50;100549.97;;;1.02;61.80
6853;BME280;3465;42.144;24.722;2024-01-11T09:33:16;100541.28;;;1.18;60.79
6853;BME280;3465;42.144;24.722;2024-01-11T09:35:41;100547.25;;;1.18;62.53
6853;BME280;3465;42.144;24.722;2024-01-11T09:38:07;100537.88;;;1.19;61.32
6853;BME280;3465;42.144;24.722;2024-01-11T09:40:32;100527.56;;;1.25;61.24
6853;BME280;3465;42.144;24.722;2024-01-11T09:42:58;100528.31;;;1.31;61.51
6853;BME280;3465;42.144;24.722;2024-01-11T09:45:24;100525.53;;;1.49;62.34
6853;BME280;3465;42.144;24.722;2024-01-11T09:47:50;100511.78;;;1.58;59.72
6853;BME280;3465;42.144;24.722;2024-01-11T09:50:18;100510.03;;;1.63;59.35
6853;BME280;3465;42.144;24.722;2024-01-11T09:52:47;100496.22;;;1.73;60.58
6853;BME280;3465;42.144;24.722;2024-01-11T09:55:19;100484.88;;;1.91;58.74
6853;BME280;3465;42.144;24.722;2024-01-11T09:57:46;100490.81;;;1.93;59.68
6853;BME280;3465;42.144;24.722;2024-01-11T10:00:14;100482.22;;;1.97;57.90
6853;BME280;3465;42.144;24.722;2024-01-11T10:02:41;100485.34;;;2.15;59.40
6853;BME280;3465;42.144;24.722;2024-01-11T10:05:07;100475.09;;;2.14;58.68
6853;BME280;3465;42.144;24.722;2024-01-11T10:07:33;100469.78;;;2.27;58.30
6853;BME280;3465;42.144;24.722;2024-01-11T10:09:59;100468.03;;;2.29;57.72
6853;BME280;3465;42.144;24.722;2024-01-11T10:12:27;100470.38;;;2.43;59.12
6853;BME280;3465;42.144;24.722;2024-01-11T10:14:53;100458.28;;;2.48;58.56
6853;BME280;3465;42.144;24.722;2024-01-11T10:17:19;100463.09;;;2.68;57.38
6853;BME280;3465;42.144;24.722;2024-01-11T10:19:45;100456.22;;;2.68;57.52
6853;BME280;3465;42.144;24.722;2024-01-11T10:22:11;100445.38;;;2.54;57.04
6853;BME280;3465;42.144;24.722;2024-01-11T10:24:40;100439.28;;;2.61;55.91
6853;BME280;3465;42.144;24.722;2024-01-11T10:27:08;100424.75;;;2.62;57.91
6853;BME280;3465;42.144;24.722;2024-01-11T10:32:57;100416.63;;;2.83;55.60
6853;BME280;3465;42.144;24.722;2024-01-11T10:38:45;100409.66;;;2.89;56.49
6853;BME280;3465;42.144;24.722;2024-01-11T10:41:12;100405.81;;;2.67;57.34
6853;BME280;3465;42.144;24.722;2024-01-11T10:43:43;100410.84;;;2.73;57.32
6853;BME280;3465;42.144;24.722;2024-01-11T10:46:11;100406.56;;;2.72;56.25
6853;BME280;3465;42.144;24.722;2024-01-11T10:48:38;100397.72;;;2.87;55.67
6853;BME280;3465;42.144;24.722;2024-01-11T10:51:12;100384.59;;;3.02;56.53
6853;BME280;3465;42.144;24.722;2024-01-11T10:53:45;100382.47;;;3.20;57.89
6853;BME280;3465;42.144;24.722;2024-01-11T10:56:11;100374.72;;;3.23;55.07
6853;BME280;3465;42.144;24.722;2024-01-11T10:58:40;100371.34;;;3.21;56.46
6853;BME280;3465;42.144;24.722;2024-01-11T11:01:06;100366.53;;;3.46;56.57
6853;BME280;3465;42.144;24.722;2024-01-11T11:03:33;100370.97;;;3.38;56.85
6853;BME280;3465;42.144;24.722;2024-01-11T11:06:00;100363.09;;;3.46;55.12
6853;BME280;3465;42.144;24.722;2024-01-11T11:08:26;100359.91;;;3.71;54.39
6853;BME280;3465;42.144;24.722;2024-01-11T11:10:55;100345.41;;;3.70;54.81
6853;BME280;3465;42.144;24.722;2024-01-11T11:13:22;100341.94;;;3.71;55.24
6853;BME280;3465;42.144;24.722;2024-01-11T11:15:48;100338.25;;;3.81;54.52
6853;BME280;3465;42.144;24.722;2024-01-11T11:18:14;100337.19;;;3.90;54.36
6853;BME280;3465;42.144;24.722;2024-01-11T11:20:41;100332.59;;;4.02;54.46
6853;BME280;3465;42.144;24.722;2024-01-11T11:23:11;100331.75;;;4.02;53.76
6853;BME280;3465;42.144;24.722;2024-01-11T11:25:41;100328.22;;;4.06;54.01
6853;BME280;3465;42.144;24.722;2024-01-11T11:28:07;100327.81;;;4.21;52.44
6853;BME280;3465;42.144;24.722;2024-01-11T11:30:37;100316.63;;;4.54;53.00
6853;BME280;3465;42.144;24.722;2024-01-11T11:33:22;100309.13;;;4.76;51.16
6853;BME280;3465;42.144;24.722;2024-01-11T11:35:50;100294.34;;;5.38;48.51
6853;BME280;3465;42.144;24.722;2024-01-11T11:38:18;100292.00;;;6.09;47.70
6853;BME280;3465;42.144;24.722;2024-01-11T11:40:46;100296.09;;;6.85;44.84
6853;BME280;3465;42.144;24.722;2024-01-11T11:43:13;100278.88;;;9.95;38.56
6853;BME280;3465;42.144;24.722;2024-01-11T11:45:40;100261.19;;;13.44;32.23
6853;BME280;3465;42.144;24.722;2024-01-11T11:51:30;100250.66;;;17.24;23.80
6853;BME280;3465;42.144;24.722;2024-01-11T11:53:58;100241.25;;;17.85;23.08
6853;BME280;3465;42.144;24.722;2024-01-11T11:56:24;100244.72;;;18.15;22.43
6853;BME280;3465;42.144;24.722;2024-01-11T11:58:50;100231.16;;;17.37;22.86
6853;BME280;3465;42.144;24.722;2024-01-11T12:01:18;100223.63;;;17.01;23.30
6853;BME280;3465;42.144;24.722;2024-01-11T12:03:44;100187.75;;;15.69;25.52
6853;BME280;3465;42.144;24.722;2024-01-11T12:06:21;100207.59;;;14.89;26.47
6853;BME280;3465;42.144;24.722;2024-01-11T12:08:53;100196.00;;;14.07;27.71
6853;BME280;3465;42.144;24.722;2024-01-11T12:11:20;100198.66;;;13.30;30.21
6853;BME280;3465;42.144;24.722;2024-01-11T12:13:47;100190.75;;;12.36;30.61
6853;BME280;3465;42.144;24.722;2024-01-11T12:16:13;100188.44;;;12.17;31.34
6853;BME280;3465;42.144;24.722;2024-01-11T12:18:39;100183.78;;;12.08;31.20
6853;BME280;3465;42.144;24.722;2024-01-11T12:21:05;100183.50;;;11.84;31.96
6853;BME280;3465;42.144;24.722;2024-01-11T12:23:32;100183.38;;;11.42;32.79
6853;BME280;3465;42.144;24.722;2024-01-11T12:26:01;100184.63;;;11.05;34.18
6853;BME280;3465;42.144;24.722;2024-01-11T12:28:27;100172.47;;;11.06;33.51
6853;BME280;3465;42.144;24.722;2024-01-11T12:30:53;100174.19;;;11.37;32.91
6853;BME280;3465;42.144;24.722;2024-01-11T12:33:19;100168.78;;;11.83;31.96
6853;BME280;3465;42.144;24.722;2024-01-11T12:35:44;100167.41;;;11.48;32.96
6853;BME280;3465;42.144;24.722;2024-01-11T12:38:10;100164.00;;;11.62;32.54
6853;BME280;3465;42.144;24.722;2024-01-11T12:40:36;100161.16;;;11.66;32.36
6853;BME280;3465;42.144;24.722;2024-01-11T12:43:03;100153.53;;;12.74;30.71
6853;BME280;3465;42.144;24.722;2024-01-11T12:45:29;100150.06;;;13.92;29.55
6853;BME280;3465;42.144;24.722;2024-01-11T12:47:55;100137.44;;;15.07;26.52
6853;BME280;3465;42.144;24.722;2024-01-11T12:50:26;100136.94;;;16.38;25.31
6853;BME280;3465;42.144;24.722;2024-01-11T12:53:12;100140.34;;;17.14;24.16
6853;BME280;3465;42.144;24.722;2024-01-11T12:55:52;100136.00;;;17.86;22.56
6853;BME280;3465;42.144;24.722;2024-01-11T12:58:26;100130.00;;;17.02;24.23
6853;BME280;3465;42.144;24.722;2024-01-11T13:00:52;100132.06;;;16.55;24.65
6853;BME280;3465;42.144;24.722;2024-01-11T13:03:18;100128.44;;;16.99;23.19
6853;BME280;3465;42.144;24.722;2024-01-11T13:05:45;100133.19;;;17.78;22.39
6853;BME280;3465;42.144;24.722;2024-01-11T13:08:11;100129.94;;;16.92;23.92